sensor_id;sensor_type;location;lat;lon;timestamp;P1;durP1;ratioP1;P2;durP2;ratioP2
50519;SDS011;36468;44.098;3.078;2022-12-07T00:00:30;32.50;;;14.35;;
50519;SDS011;36468;44.098;3.078;2022-12-07T00:02:56;28.88;;;13.65;;
50519;SDS011;36468;44.098;3.078;2022-12-07T00:05:22;28.33;;;13.60;;
50519;SDS011;36468;44.098;3.078;2022-12-07T00:07:48;31.80;;;14.63;;
50519;SDS011;36468;44.098;3.078;2022-12-07T00:10:15;28.95;;;13.60;;
50519;SDS011;36468;44.098;3.078;2022-12-07T00:12:41;30.40;;;13.35;;
50519;SDS011;36468;44.098;3.078;2022-12-07T00:15:07;26.20;;;13.15;;
50519;SDS011;36468;44.098;3.078;2022-12-07T00:17:33;24.73;;;11.95;;
50519;SDS011;36468;44.098;3.078;2022-12-07T00:19:59;25.77;;;12.57;;
50519;SDS011;36468;44.098;3.078;2022-12-07T00:22:25;29.77;;;12.73;;
50519;SDS011;36468;44.098;3.078;2022-12-07T00:24:51;26.30;;;12.82;;
50519;SDS011;36468;44.098;3.078;2022-12-07T00:27:17;35.45;;;13.40;;
50519;SDS011;36468;44.098;3.078;2022-12-07T00:29:43;31.60;;;13.82;;
50519;SDS011;36468;44.098;3.078;2022-12-07T00:32:09;34.15;;;14.13;;
50519;SDS011;36468;44.098;3.078;2022-12-07T00:34:35;28.50;;;12.85;;
50519;SDS011;36468;44.098;3.078;2022-12-07T00:37:01;29.33;;;13.95;;
50519;SDS011;36468;44.098;3.078;2022-12-07T00:39:27;30.00;;;13.65;;
50519;SDS011;36468;44.098;3.078;2022-12-07T00:41:53;35.97;;;14.52;;
50519;SDS011;36468;44.098;3.078;2022-12-07T00:44:19;42.65;;;16.48;;
50519;SDS011;36468;44.098;3.078;2022-12-07T00:46:45;39.50;;;16.25;;
50519;SDS011;36468;44.098;3.078;2022-12-07T00:49:11;36.83;;;16.63;;
50519;SDS011;36468;44.098;3.078;2022-12-07T00:51:38;36.42;;;15.13;;
50519;SDS011;36468;44.098;3.078;2022-12-07T00:54:04;41.95;;;16.48;;
50519;SDS011;36468;44.098;3.078;2022-12-07T00:56:30;40.13;;;14.23;;
50519;SDS011;36468;44.098;3.078;2022-12-07T00:58:57;39.58;;;15.57;;
50519;SDS011;36468;44.098;3.078;2022-12-07T01:01:23;29.83;;;14.40;;
50519;SDS011;36468;44.098;3.078;2022-12-07T01:03:50;35.10;;;15.77;;
50519;SDS011;36468;44.098;3.078;2022-12-07T01:06:17;34.10;;;14.82;;
50519;SDS011;36468;44.098;3.078;2022-12-07T01:08:44;37.47;;;15.65;;
50519;SDS011;36468;44.098;3.078;2022-12-07T01:11:12;44.15;;;17.63;;
50519;SDS011;36468;44.098;3.078;2022-12-07T01:13:38;44.30;;;17.35;;
50519;SDS011;36468;44.098;3.078;2022-12-07T01:16:05;35.63;;;14.82;;
50519;SDS011;36468;44.098;3.078;2022-12-07T01:18:33;33.25;;;13.45;;
50519;SDS011;36468;44.098;3.078;2022-12-07T01:21:11;27.80;;;12.75;;
50519;SDS011;36468;44.098;3.078;2022-12-07T01:23:37;28.52;;;12.88;;
50519;SDS011;36468;44.098;3.078;2022-12-07T01:26:07;25.98;;;12.45;;
50519;SDS011;36468;44.098;3.078;2022-12-07T01:28:36;23.48;;;12.02;;
50519;SDS011;36468;44.098;3.078;2022-12-07T01:31:03;28.20;;;12.20;;
50519;SDS011;36468;44.098;3.078;2022-12-07T01:33:30;27.45;;;12.90;;
50519;SDS011;36468;44.098;3.078;2022-12-07T01:38:41;29.98;;;12.32;;
50519;SDS011;36468;44.098;3.078;2022-12-07T01:41:08;24.15;;;11.45;;
50519;SDS011;36468;44.098;3.078;2022-12-07T01:43:34;27.92;;;12.48;;
50519;SDS011;36468;44.098;3.078;2022-12-07T01:46:00;23.45;;;11.55;;
50519;SDS011;36468;44.098;3.078;2022-12-07T01:48:37;20.52;;;10.25;;
50519;SDS011;36468;44.098;3.078;2022-12-07T01:51:09;25.63;;;11.68;;
50519;SDS011;36468;44.098;3.078;2022-12-07T01:53:36;36.65;;;15.98;;
50519;SDS011;36468;44.098;3.078;2022-12-07T01:56:04;43.13;;;16.67;;
50519;SDS011;36468;44.098;3.078;2022-12-07T01:58:31;44.08;;;20.13;;
50519;SDS011;36468;44.098;3.078;2022-12-07T02:00:57;48.53;;;19.90;;
50519;SDS011;36468;44.098;3.078;2022-12-07T02:03:34;43.38;;;19.85;;
50519;SDS011;36468;44.098;3.078;2022-12-07T02:06:01;34.70;;;16.38;;
50519;SDS011;36468;44.098;3.078;2022-12-07T02:08:28;32.05;;;15.65;;
50519;SDS011;36468;44.098;3.078;2022-12-07T02:10:54;37.42;;;16.98;;
50519;SDS011;36468;44.098;3.078;2022-12-07T02:13:24;35.75;;;15.50;;
50519;SDS011;36468;44.098;3.078;2022-12-07T02:21:09;31.35;;;13.32;;
50519;SDS011;36468;44.098;3.078;2022-12-07T02:23:41;31.20;;;14.13;;
50519;SDS011;36468;44.098;3.078;2022-12-07T02:31:43;33.17;;;14.38;;
50519;SDS011;36468;44.098;3.078;2022-12-07T02:36:56;41.53;;;16.38;;
50519;SDS011;36468;44.098;3.078;2022-12-07T02:39:45;33.67;;;15.75;;
50519;SDS011;36468;44.098;3.078;2022-12-07T02:42:14;37.55;;;15.25;;
50519;SDS011;36468;44.098;3.078;2022-12-07T02:44:41;30.55;;;13.43;;
50519;SDS011;36468;44.098;3.078;2022-12-07T02:47:08;28.08;;;12.45;;
50519;SDS011;36468;44.098;3.078;2022-12-07T02:49:36;32.95;;;12.90;;
50519;SDS011;36468;44.098;3.078;2022-12-07T02:52:03;28.13;;;12.07;;
50519;SDS011;36468;44.098;3.078;2022-12-07T02:54:29;29.10;;;12.90;;
50519;SDS011;36468;44.098;3.078;2022-12-07T03:06:53;25.10;;;11.35;;
50519;SDS011;36468;44.098;3.078;2022-12-07T03:09:26;25.20;;;11.60;;
50519;SDS011;36468;44.098;3.078;2022-12-07T03:12:10;23.42;;;10.82;;
50519;SDS011;36468;44.098;3.078;2022-12-07T03:14:41;22.83;;;10.73;;
50519;SDS011;36468;44.098;3.078;2022-12-07T03:17:18;20.13;;;10.13;;
50519;SDS011;36468;44.098;3.078;2022-12-07T03:19:45;17.10;;;8.43;;
50519;SDS011;36468;44.098;3.078;2022-12-07T03:22:13;23.67;;;11.15;;
50519;SDS011;36468;44.098;3.078;2022-12-07T03:24:41;22.58;;;11.13;;
50519;SDS011;36468;44.098;3.078;2022-12-07T03:27:16;25.98;;;10.73;;
50519;SDS011;36468;44.098;3.078;2022-12-07T03:29:46;23.58;;;11.07;;
50519;SDS011;36468;44.098;3.078;2022-12-07T03:32:20;23.27;;;11.25;;
50519;SDS011;36468;44.098;3.078;2022-12-07T03:34:57;27.25;;;11.90;;
50519;SDS011;36468;44.098;3.078;2022-12-07T03:37:31;25.73;;;11.70;;
50519;SDS011;36468;44.098;3.078;2022-12-07T03:42:28;23.42;;;10.60;;
50519;SDS011;36468;44.098;3.078;2022-12-07T03:44:54;24.20;;;10.90;;
50519;SDS011;36468;44.098;3.078;2022-12-07T03:47:25;20.13;;;9.80;;
50519;SDS011;36468;44.098;3.078;2022-12-07T03:50:01;19.67;;;9.88;;
50519;SDS011;36468;44.098;3.078;2022-12-07T03:57:33;15.88;;;7.35;;
50519;SDS011;36468;44.098;3.078;2022-12-07T03:59:59;15.75;;;8.25;;
50519;SDS011;36468;44.098;3.078;2022-12-07T04:02:26;15.20;;;7.72;;
50519;SDS011;36468;44.098;3.078;2022-12-07T04:04:52;15.02;;;7.75;;
50519;SDS011;36468;44.098;3.078;2022-12-07T04:07:18;16.23;;;7.40;;
50519;SDS011;36468;44.098;3.078;2022-12-07T04:09:44;16.00;;;6.65;;
50519;SDS011;36468;44.098;3.078;2022-12-07T04:12:10;16.33;;;7.20;;
50519;SDS011;36468;44.098;3.078;2022-12-07T04:14:37;22.10;;;8.55;;
50519;SDS011;36468;44.098;3.078;2022-12-07T04:17:03;20.80;;;8.70;;
50519;SDS011;36468;44.098;3.078;2022-12-07T04:19:30;20.58;;;8.18;;
50519;SDS011;36468;44.098;3.078;2022-12-07T04:21:57;19.60;;;7.25;;
50519;SDS011;36468;44.098;3.078;2022-12-07T04:24:23;15.88;;;6.80;;
50519;SDS011;36468;44.098;3.078;2022-12-07T04:26:49;18.70;;;8.02;;
50519;SDS011;36468;44.098;3.078;2022-12-07T04:29:15;17.15;;;7.22;;
50519;SDS011;36468;44.098;3.078;2022-12-07T04:31:42;18.70;;;8.10;;
50519;SDS011;36468;44.098;3.078;2022-12-07T04:34:08;24.10;;;8.35;;
50519;SDS011;36468;44.098;3.078;2022-12-07T04:36:34;19.42;;;8.70;;
50519;SDS011;36468;44.098;3.078;2022-12-07T04:39:01;22.92;;;9.02;;
50519;SDS011;36468;44.098;3.078;2022-12-07T04:41:27;18.92;;;8.88;;
50519;SDS011;36468;44.098;3.078;2022-12-07T04:43:57;21.55;;;9.15;;
50519;SDS011;36468;44.098;3.078;2022-12-07T04:46:24;20.17;;;9.50;;
50519;SDS011;36468;44.098;3.078;2022-12-07T04:48:50;23.48;;;9.73;;
50519;SDS011;36468;44.098;3.078;2022-12-07T04:51:18;25.15;;;9.98;;
50519;SDS011;36468;44.098;3.078;2022-12-07T04:53:45;29.70;;;11.85;;
50519;SDS011;36468;44.098;3.078;2022-12-07T04:56:11;31.65;;;12.75;;
50519;SDS011;36468;44.098;3.078;2022-12-07T04:58:37;33.78;;;13.65;;
50519;SDS011;36468;44.098;3.078;2022-12-07T05:01:03;34.97;;;14.80;;
50519;SDS011;36468;44.098;3.078;2022-12-07T05:03:29;32.72;;;13.23;;
50519;SDS011;36468;44.098;3.078;2022-12-07T05:05:55;35.22;;;14.63;;
50519;SDS011;36468;44.098;3.078;2022-12-07T05:08:21;36.20;;;15.40;;
50519;SDS011;36468;44.098;3.078;2022-12-07T05:10:48;35.85;;;14.48;;
50519;SDS011;36468;44.098;3.078;2022-12-07T05:13:14;34.15;;;14.00;;
50519;SDS011;36468;44.098;3.078;2022-12-07T05:15:40;33.58;;;14.25;;
50519;SDS011;36468;44.098;3.078;2022-12-07T05:18:09;37.67;;;16.58;;
50519;SDS011;36468;44.098;3.078;2022-12-07T05:20:38;22.80;;;11.40;;
50519;SDS011;36468;44.098;3.078;2022-12-07T05:23:04;28.95;;;11.77;;
50519;SDS011;36468;44.098;3.078;2022-12-07T05:25:30;18.88;;;10.57;;
50519;SDS011;36468;44.098;3.078;2022-12-07T05:27:56;27.70;;;11.90;;
50519;SDS011;36468;44.098;3.078;2022-12-07T05:30:23;20.85;;;11.00;;
50519;SDS011;36468;44.098;3.078;2022-12-07T05:32:49;18.77;;;9.20;;
50519;SDS011;36468;44.098;3.078;2022-12-07T05:35:16;16.83;;;9.25;;
50519;SDS011;36468;44.098;3.078;2022-12-07T05:37:42;16.88;;;8.25;;
50519;SDS011;36468;44.098;3.078;2022-12-07T05:40:08;20.20;;;9.70;;
50519;SDS011;36468;44.098;3.078;2022-12-07T05:42:35;23.08;;;7.65;;
50519;SDS011;36468;44.098;3.078;2022-12-07T05:45:01;31.35;;;11.88;;
50519;SDS011;36468;44.098;3.078;2022-12-07T05:47:27;17.08;;;8.25;;
50519;SDS011;36468;44.098;3.078;2022-12-07T05:49:53;15.75;;;6.88;;
50519;SDS011;36468;44.098;3.078;2022-12-07T05:52:19;20.70;;;7.13;;
50519;SDS011;36468;44.098;3.078;2022-12-07T05:54:45;17.80;;;8.52;;
50519;SDS011;36468;44.098;3.078;2022-12-07T05:57:11;14.57;;;7.60;;
50519;SDS011;36468;44.098;3.078;2022-12-07T05:59:37;16.80;;;8.15;;
50519;SDS011;36468;44.098;3.078;2022-12-07T06:02:10;16.13;;;7.45;;
50519;SDS011;36468;44.098;3.078;2022-12-07T06:04:38;16.00;;;7.28;;
50519;SDS011;36468;44.098;3.078;2022-12-07T06:07:04;14.00;;;6.75;;
50519;SDS011;36468;44.098;3.078;2022-12-07T06:09:30;13.55;;;7.20;;
50519;SDS011;36468;44.098;3.078;2022-12-07T06:11:56;15.20;;;7.47;;
50519;SDS011;36468;44.098;3.078;2022-12-07T06:14:41;16.58;;;7.88;;
50519;SDS011;36468;44.098;3.078;2022-12-07T06:17:07;20.98;;;9.25;;
50519;SDS011;36468;44.098;3.078;2022-12-07T06:19:33;20.70;;;9.77;;
50519;SDS011;36468;44.098;3.078;2022-12-07T06:22:00;18.17;;;8.75;;
50519;SDS011;36468;44.098;3.078;2022-12-07T06:24:26;25.05;;;10.10;;
50519;SDS011;36468;44.098;3.078;2022-12-07T06:26:52;19.73;;;9.02;;
50519;SDS011;36468;44.098;3.078;2022-12-07T06:29:18;21.17;;;10.32;;
50519;SDS011;36468;44.098;3.078;2022-12-07T06:31:45;33.35;;;15.00;;
50519;SDS011;36468;44.098;3.078;2022-12-07T06:34:12;67.30;;;27.40;;
50519;SDS011;36468;44.098;3.078;2022-12-07T06:36:39;55.42;;;21.63;;
50519;SDS011;36468;44.098;3.078;2022-12-07T06:39:05;64.47;;;25.58;;
50519;SDS011;36468;44.098;3.078;2022-12-07T06:41:34;17.48;;;8.43;;
50519;SDS011;36468;44.098;3.078;2022-12-07T06:44:00;33.80;;;11.23;;
50519;SDS011;36468;44.098;3.078;2022-12-07T06:46:26;26.65;;;12.52;;
50519;SDS011;36468;44.098;3.078;2022-12-07T06:48:52;40.78;;;16.73;;
50519;SDS011;36468;44.098;3.078;2022-12-07T06:51:18;50.83;;;24.65;;
50519;SDS011;36468;44.098;3.078;2022-12-07T06:53:44;36.63;;;16.88;;
50519;SDS011;36468;44.098;3.078;2022-12-07T06:56:10;28.30;;;12.65;;
50519;SDS011;36468;44.098;3.078;2022-12-07T06:58:36;26.48;;;12.07;;
50519;SDS011;36468;44.098;3.078;2022-12-07T07:01:02;27.00;;;11.48;;
50519;SDS011;36468;44.098;3.078;2022-12-07T07:03:28;41.30;;;17.48;;
50519;SDS011;36468;44.098;3.078;2022-12-07T07:05:54;38.88;;;15.25;;
50519;SDS011;36468;44.098;3.078;2022-12-07T07:08:20;24.63;;;10.82;;
50519;SDS011;36468;44.098;3.078;2022-12-07T07:10:46;21.17;;;8.27;;
50519;SDS011;36468;44.098;3.078;2022-12-07T07:13:12;23.10;;;10.05;;
50519;SDS011;36468;44.098;3.078;2022-12-07T07:15:38;21.42;;;8.70;;
50519;SDS011;36468;44.098;3.078;2022-12-07T07:18:05;18.20;;;8.38;;
50519;SDS011;36468;44.098;3.078;2022-12-07T07:20:31;22.05;;;8.60;;
50519;SDS011;36468;44.098;3.078;2022-12-07T07:22:57;21.00;;;8.48;;
50519;SDS011;36468;44.098;3.078;2022-12-07T07:25:23;18.42;;;9.77;;
50519;SDS011;36468;44.098;3.078;2022-12-07T07:27:49;52.92;;;18.58;;
50519;SDS011;36468;44.098;3.078;2022-12-07T07:30:15;35.42;;;13.88;;
50519;SDS011;36468;44.098;3.078;2022-12-07T07:32:41;38.53;;;13.63;;
50519;SDS011;36468;44.098;3.078;2022-12-07T07:35:07;25.15;;;11.98;;
50519;SDS011;36468;44.098;3.078;2022-12-07T07:37:33;38.70;;;18.65;;
50519;SDS011;36468;44.098;3.078;2022-12-07T07:39:59;31.23;;;11.05;;
50519;SDS011;36468;44.098;3.078;2022-12-07T07:42:25;26.65;;;10.60;;
50519;SDS011;36468;44.098;3.078;2022-12-07T07:44:51;20.25;;;9.25;;
50519;SDS011;36468;44.098;3.078;2022-12-07T07:47:17;25.02;;;11.07;;
50519;SDS011;36468;44.098;3.078;2022-12-07T07:49:43;34.00;;;13.23;;
50519;SDS011;36468;44.098;3.078;2022-12-07T07:52:09;38.10;;;15.05;;
50519;SDS011;36468;44.098;3.078;2022-12-07T07:54:36;41.60;;;17.98;;
50519;SDS011;36468;44.098;3.078;2022-12-07T07:57:02;44.83;;;19.10;;
50519;SDS011;36468;44.098;3.078;2022-12-07T07:59:28;51.97;;;18.10;;
50519;SDS011;36468;44.098;3.078;2022-12-07T08:01:54;49.17;;;19.90;;
50519;SDS011;36468;44.098;3.078;2022-12-07T08:04:20;50.30;;;19.30;;
50519;SDS011;36468;44.098;3.078;2022-12-07T08:06:46;101.53;;;20.70;;
50519;SDS011;36468;44.098;3.078;2022-12-07T08:09:12;39.28;;;15.65;;
50519;SDS011;36468;44.098;3.078;2022-12-07T08:11:38;60.45;;;17.52;;
50519;SDS011;36468;44.098;3.078;2022-12-07T08:14:04;101.95;;;20.10;;
50519;SDS011;36468;44.098;3.078;2022-12-07T08:16:30;77.85;;;18.00;;
50519;SDS011;36468;44.098;3.078;2022-12-07T08:18:56;42.85;;;17.88;;
50519;SDS011;36468;44.098;3.078;2022-12-07T08:21:22;81.22;;;22.33;;
50519;SDS011;36468;44.098;3.078;2022-12-07T08:23:48;120.65;;;22.63;;
50519;SDS011;36468;44.098;3.078;2022-12-07T08:26:15;101.03;;;25.23;;
50519;SDS011;36468;44.098;3.078;2022-12-07T08:28:41;51.45;;;20.58;;
50519;SDS011;36468;44.098;3.078;2022-12-07T08:31:09;79.72;;;24.17;;
50519;SDS011;36468;44.098;3.078;2022-12-07T08:33:36;56.33;;;18.92;;
50519;SDS011;36468;44.098;3.078;2022-12-07T08:36:03;80.05;;;18.38;;
50519;SDS011;36468;44.098;3.078;2022-12-07T08:38:29;50.47;;;19.63;;
50519;SDS011;36468;44.098;3.078;2022-12-07T08:40:56;77.10;;;21.67;;
50519;SDS011;36468;44.098;3.078;2022-12-07T08:43:22;52.50;;;19.38;;
50519;SDS011;36468;44.098;3.078;2022-12-07T08:45:49;126.00;;;21.02;;
50519;SDS011;36468;44.098;3.078;2022-12-07T08:48:18;82.22;;;19.90;;
50519;SDS011;36468;44.098;3.078;2022-12-07T08:50:47;50.58;;;17.92;;
50519;SDS011;36468;44.098;3.078;2022-12-07T08:53:13;39.88;;;17.25;;
50519;SDS011;36468;44.098;3.078;2022-12-07T08:55:39;41.67;;;18.10;;
50519;SDS011;36468;44.098;3.078;2022-12-07T08:58:05;36.85;;;16.30;;
50519;SDS011;36468;44.098;3.078;2022-12-07T09:00:31;34.08;;;15.07;;
50519;SDS011;36468;44.098;3.078;2022-12-07T09:02:57;30.25;;;15.25;;
50519;SDS011;36468;44.098;3.078;2022-12-07T09:05:23;33.92;;;14.85;;
50519;SDS011;36468;44.098;3.078;2022-12-07T09:07:50;43.88;;;18.00;;
50519;SDS011;36468;44.098;3.078;2022-12-07T09:10:17;32.08;;;15.88;;
50519;SDS011;36468;44.098;3.078;2022-12-07T09:12:43;44.47;;;16.67;;
50519;SDS011;36468;44.098;3.078;2022-12-07T09:15:09;34.30;;;16.20;;
50519;SDS011;36468;44.098;3.078;2022-12-07T09:17:35;34.83;;;16.58;;
50519;SDS011;36468;44.098;3.078;2022-12-07T09:20:02;40.72;;;16.30;;
50519;SDS011;36468;44.098;3.078;2022-12-07T09:22:29;32.72;;;13.95;;
50519;SDS011;36468;44.098;3.078;2022-12-07T09:24:56;31.10;;;13.50;;
50519;SDS011;36468;44.098;3.078;2022-12-07T09:27:22;21.10;;;9.98;;
50519;SDS011;36468;44.098;3.078;2022-12-07T09:29:48;20.63;;;9.77;;
50519;SDS011;36468;44.098;3.078;2022-12-07T09:32:14;18.48;;;9.50;;
50519;SDS011;36468;44.098;3.078;2022-12-07T09:34:40;16.52;;;10.38;;
50519;SDS011;36468;44.098;3.078;2022-12-07T09:37:06;21.95;;;10.15;;
50519;SDS011;36468;44.098;3.078;2022-12-07T09:39:33;16.75;;;8.43;;
50519;SDS011;36468;44.098;3.078;2022-12-07T09:41:59;13.90;;;7.03;;
50519;SDS011;36468;44.098;3.078;2022-12-07T09:44:25;22.58;;;8.10;;
50519;SDS011;36468;44.098;3.078;2022-12-07T09:46:52;16.58;;;7.07;;
50519;SDS011;36468;44.098;3.078;2022-12-07T09:49:19;12.90;;;6.35;;
50519;SDS011;36468;44.098;3.078;2022-12-07T09:51:45;12.90;;;6.38;;
50519;SDS011;36468;44.098;3.078;2022-12-07T09:54:12;10.82;;;6.20;;
50519;SDS011;36468;44.098;3.078;2022-12-07T09:56:39;12.07;;;6.15;;
50519;SDS011;36468;44.098;3.078;2022-12-07T09:59:05;11.43;;;5.90;;
50519;SDS011;36468;44.098;3.078;2022-12-07T10:01:32;15.43;;;5.97;;
50519;SDS011;36468;44.098;3.078;2022-12-07T10:06:54;13.90;;;6.30;;
50519;SDS011;36468;44.098;3.078;2022-12-07T10:09:21;15.13;;;7.75;;
50519;SDS011;36468;44.098;3.078;2022-12-07T10:14:34;13.10;;;6.88;;
50519;SDS011;36468;44.098;3.078;2022-12-07T10:17:00;15.77;;;8.85;;
50519;SDS011;36468;44.098;3.078;2022-12-07T10:19:31;15.35;;;9.63;;
50519;SDS011;36468;44.098;3.078;2022-12-07T10:24:26;13.02;;;8.27;;
50519;SDS011;36468;44.098;3.078;2022-12-07T10:26:53;11.00;;;7.35;;
50519;SDS011;36468;44.098;3.078;2022-12-07T10:29:34;15.73;;;8.07;;
50519;SDS011;36468;44.098;3.078;2022-12-07T10:32:03;17.17;;;8.45;;
50519;SDS011;36468;44.098;3.078;2022-12-07T10:34:36;13.07;;;7.53;;
50519;SDS011;36468;44.098;3.078;2022-12-07T10:37:23;15.98;;;7.70;;
50519;SDS011;36468;44.098;3.078;2022-12-07T10:39:53;17.75;;;7.35;;
50519;SDS011;36468;44.098;3.078;2022-12-07T10:42:24;20.95;;;7.85;;
50519;SDS011;36468;44.098;3.078;2022-12-07T11:00:39;9.15;;;6.18;;
50519;SDS011;36468;44.098;3.078;2022-12-07T11:05:53;15.23;;;6.22;;
50519;SDS011;36468;44.098;3.078;2022-12-07T11:10:55;11.10;;;6.20;;
50519;SDS011;36468;44.098;3.078;2022-12-07T11:18:24;10.20;;;5.53;;
50519;SDS011;36468;44.098;3.078;2022-12-07T11:21:09;15.77;;;6.43;;
50519;SDS011;36468;44.098;3.078;2022-12-07T11:29:04;14.13;;;6.15;;
50519;SDS011;36468;44.098;3.078;2022-12-07T11:31:36;10.68;;;6.20;;
50519;SDS011;36468;44.098;3.078;2022-12-07T11:34:06;11.32;;;7.05;;
50519;SDS011;36468;44.098;3.078;2022-12-07T11:39:01;18.50;;;7.30;;
50519;SDS011;36468;44.098;3.078;2022-12-07T11:41:37;14.35;;;7.65;;
50519;SDS011;36468;44.098;3.078;2022-12-07T11:44:26;17.45;;;8.02;;
50519;SDS011;36468;44.098;3.078;2022-12-07T11:55:40;12.45;;;7.15;;
50519;SDS011;36468;44.098;3.078;2022-12-07T12:00:49;15.10;;;6.97;;
50519;SDS011;36468;44.098;3.078;2022-12-07T12:03:21;11.80;;;6.90;;
50519;SDS011;36468;44.098;3.078;2022-12-07T12:05:55;9.65;;;5.72;;
50519;SDS011;36468;44.098;3.078;2022-12-07T12:08:22;14.63;;;5.60;;
50519;SDS011;36468;44.098;3.078;2022-12-07T12:26:21;14.27;;;6.88;;
50519;SDS011;36468;44.098;3.078;2022-12-07T12:28:52;26.38;;;15.48;;
50519;SDS011;36468;44.098;3.078;2022-12-07T12:33:48;13.05;;;7.30;;
50519;SDS011;36468;44.098;3.078;2022-12-07T12:38:51;11.43;;;6.38;;
50519;SDS011;36468;44.098;3.078;2022-12-07T12:46:55;6.28;;;3.63;;
50519;SDS011;36468;44.098;3.078;2022-12-07T12:51:52;7.22;;;3.47;;
50519;SDS011;36468;44.098;3.078;2022-12-07T12:59:29;10.27;;;3.40;;
50519;SDS011;36468;44.098;3.078;2022-12-07T13:04:59;6.70;;;2.70;;
50519;SDS011;36468;44.098;3.078;2022-12-07T13:15:40;4.28;;;2.30;;
50519;SDS011;36468;44.098;3.078;2022-12-07T13:26:17;7.38;;;2.78;;
50519;SDS011;36468;44.098;3.078;2022-12-07T13:31:32;17.90;;;8.52;;
50519;SDS011;36468;44.098;3.078;2022-12-07T13:33:59;7.20;;;3.38;;
50519;SDS011;36468;44.098;3.078;2022-12-07T13:39:09;6.75;;;2.92;;
50519;SDS011;36468;44.098;3.078;2022-12-07T13:41:36;11.15;;;4.18;;
50519;SDS011;36468;44.098;3.078;2022-12-07T13:44:05;14.63;;;5.75;;
50519;SDS011;36468;44.098;3.078;2022-12-07T13:49:23;38.17;;;11.13;;
50519;SDS011;36468;44.098;3.078;2022-12-07T13:51:49;19.13;;;7.60;;
50519;SDS011;36468;44.098;3.078;2022-12-07T13:54:16;17.77;;;6.45;;
50519;SDS011;36468;44.098;3.078;2022-12-07T13:56:42;13.38;;;6.20;;
50519;SDS011;36468;44.098;3.078;2022-12-07T13:59:13;20.70;;;7.18;;
50519;SDS011;36468;44.098;3.078;2022-12-07T14:01:39;12.85;;;6.22;;
50519;SDS011;36468;44.098;3.078;2022-12-07T14:06:48;10.50;;;4.32;;
50519;SDS011;36468;44.098;3.078;2022-12-07T14:09:19;5.55;;;2.75;;
50519;SDS011;36468;44.098;3.078;2022-12-07T14:11:46;6.20;;;2.60;;
50519;SDS011;36468;44.098;3.078;2022-12-07T14:14:14;6.13;;;2.20;;
50519;SDS011;36468;44.098;3.078;2022-12-07T14:16:41;9.90;;;2.88;;
50519;SDS011;36468;44.098;3.078;2022-12-07T14:22:05;11.35;;;5.25;;
50519;SDS011;36468;44.098;3.078;2022-12-07T14:24:33;11.20;;;4.88;;
50519;SDS011;36468;44.098;3.078;2022-12-07T14:27:15;31.25;;;12.10;;
50519;SDS011;36468;44.098;3.078;2022-12-07T14:29:42;19.40;;;5.90;;
50519;SDS011;36468;44.098;3.078;2022-12-07T14:34:40;19.25;;;7.05;;
50519;SDS011;36468;44.098;3.078;2022-12-07T14:37:08;31.33;;;10.32;;
50519;SDS011;36468;44.098;3.078;2022-12-07T14:39:35;26.38;;;9.10;;
50519;SDS011;36468;44.098;3.078;2022-12-07T14:42:01;12.55;;;3.88;;
50519;SDS011;36468;44.098;3.078;2022-12-07T14:44:27;6.22;;;2.90;;
50519;SDS011;36468;44.098;3.078;2022-12-07T14:46:53;8.30;;;3.30;;
50519;SDS011;36468;44.098;3.078;2022-12-07T14:49:20;13.82;;;5.25;;
50519;SDS011;36468;44.098;3.078;2022-12-07T14:51:46;78.97;;;28.80;;
50519;SDS011;36468;44.098;3.078;2022-12-07T14:54:14;74.45;;;26.10;;
50519;SDS011;36468;44.098;3.078;2022-12-07T14:56:41;51.67;;;17.52;;
50519;SDS011;36468;44.098;3.078;2022-12-07T14:59:08;50.38;;;17.98;;
50519;SDS011;36468;44.098;3.078;2022-12-07T15:01:35;23.75;;;7.53;;
50519;SDS011;36468;44.098;3.078;2022-12-07T15:04:01;21.58;;;6.65;;
50519;SDS011;36468;44.098;3.078;2022-12-07T15:06:27;16.15;;;5.03;;
50519;SDS011;36468;44.098;3.078;2022-12-07T15:08:53;10.88;;;3.30;;
50519;SDS011;36468;44.098;3.078;2022-12-07T15:11:20;10.98;;;2.85;;
50519;SDS011;36468;44.098;3.078;2022-12-07T15:13:46;9.60;;;3.22;;
50519;SDS011;36468;44.098;3.078;2022-12-07T15:16:30;8.32;;;3.00;;
50519;SDS011;36468;44.098;3.078;2022-12-07T15:18:56;11.88;;;3.70;;
50519;SDS011;36468;44.098;3.078;2022-12-07T15:21:22;23.73;;;9.13;;
50519;SDS011;36468;44.098;3.078;2022-12-07T15:23:48;20.58;;;7.72;;
50519;SDS011;36468;44.098;3.078;2022-12-07T15:26:14;7.95;;;3.92;;
50519;SDS011;36468;44.098;3.078;2022-12-07T15:28:41;17.00;;;5.13;;
50519;SDS011;36468;44.098;3.078;2022-12-07T15:31:11;53.95;;;26.30;;
50519;SDS011;36468;44.098;3.078;2022-12-07T15:33:37;57.05;;;22.50;;
50519;SDS011;36468;44.098;3.078;2022-12-07T15:36:03;31.90;;;11.02;;
50519;SDS011;36468;44.098;3.078;2022-12-07T15:38:29;24.90;;;7.03;;
50519;SDS011;36468;44.098;3.078;2022-12-07T15:40:55;35.33;;;15.00;;
50519;SDS011;36468;44.098;3.078;2022-12-07T15:43:21;90.35;;;45.97;;
50519;SDS011;36468;44.098;3.078;2022-12-07T15:46:23;84.60;;;41.08;;
50519;SDS011;36468;44.098;3.078;2022-12-07T15:48:49;29.15;;;13.38;;
50519;SDS011;36468;44.098;3.078;2022-12-07T15:51:15;25.35;;;10.35;;
50519;SDS011;36468;44.098;3.078;2022-12-07T15:53:41;34.60;;;14.48;;
50519;SDS011;36468;44.098;3.078;2022-12-07T15:56:07;66.82;;;33.20;;
50519;SDS011;36468;44.098;3.078;2022-12-07T15:58:34;78.25;;;35.97;;
50519;SDS011;36468;44.098;3.078;2022-12-07T16:01:00;82.13;;;37.40;;
50519;SDS011;36468;44.098;3.078;2022-12-07T16:03:26;91.28;;;44.78;;
50519;SDS011;36468;44.098;3.078;2022-12-07T16:05:53;29.85;;;12.52;;
50519;SDS011;36468;44.098;3.078;2022-12-07T16:08:19;30.25;;;8.70;;
50519;SDS011;36468;44.098;3.078;2022-12-07T16:10:45;15.98;;;7.30;;
50519;SDS011;36468;44.098;3.078;2022-12-07T16:13:11;22.83;;;7.30;;
50519;SDS011;36468;44.098;3.078;2022-12-07T16:15:41;23.70;;;7.43;;
50519;SDS011;36468;44.098;3.078;2022-12-07T16:18:08;310.92;;;128.63;;
50519;SDS011;36468;44.098;3.078;2022-12-07T16:20:34;204.75;;;82.95;;
50519;SDS011;36468;44.098;3.078;2022-12-07T16:23:00;50.13;;;20.92;;
50519;SDS011;36468;44.098;3.078;2022-12-07T16:25:27;237.77;;;94.88;;
50519;SDS011;36468;44.098;3.078;2022-12-07T16:27:53;223.38;;;84.38;;
50519;SDS011;36468;44.098;3.078;2022-12-07T16:30:19;489.02;;;233.02;;
50519;SDS011;36468;44.098;3.078;2022-12-07T16:32:45;377.15;;;150.80;;
50519;SDS011;36468;44.098;3.078;2022-12-07T16:35:11;174.13;;;74.18;;
50519;SDS011;36468;44.098;3.078;2022-12-07T16:37:38;116.57;;;49.25;;
50519;SDS011;36468;44.098;3.078;2022-12-07T16:40:04;197.90;;;81.78;;
50519;SDS011;36468;44.098;3.078;2022-12-07T16:42:31;134.32;;;54.72;;
50519;SDS011;36468;44.098;3.078;2022-12-07T16:44:58;318.40;;;124.63;;
50519;SDS011;36468;44.098;3.078;2022-12-07T16:47:24;218.93;;;91.32;;
50519;SDS011;36468;44.098;3.078;2022-12-07T16:49:50;47.05;;;19.83;;
50519;SDS011;36468;44.098;3.078;2022-12-07T16:52:17;106.88;;;50.50;;
50519;SDS011;36468;44.098;3.078;2022-12-07T16:54:43;152.60;;;86.20;;
50519;SDS011;36468;44.098;3.078;2022-12-07T16:57:09;95.07;;;48.53;;
50519;SDS011;36468;44.098;3.078;2022-12-07T16:59:35;83.13;;;37.20;;
50519;SDS011;36468;44.098;3.078;2022-12-07T17:02:01;58.97;;;24.33;;
50519;SDS011;36468;44.098;3.078;2022-12-07T17:04:28;35.10;;;13.60;;